»·PEaware :: N75232 KLAX-KSAN

N75232 :: KLAX-KSAN

FLIGHT INFORMATION

Flight Status: Arrived
Operator: Privately registered:
United States
More flights under this callsign
Pilot: Daniel B. (28719)
Aircraft: CESSNA 172 SKYHAWK
(C172)
More flights by this aircraft type
Origin: KLAX Los Angeles Intl
United States
Destination: KSAN San Diego Intl-Lindbergh
United States
More flights between these airports :: More routes between these airports
Route: +
File this flight plan on PilotEdge
Remarks:
Altitude:
(Current/Filed)
7,500ft
Speed:
(Current/Filed)
0kts
Departed: 24-Apr-20 10:02 AM
Arrived: 24-Apr-20 11:00 AM
Distance/Time
Traveled:
95nm/0:58
Distance/Time
To Go:
Arrived

Flight Plot

Page will automatically refresh every two minutes.


Map Options




Map Legend


Flown Route
Filed Route
Departure Airport
Arrival Airport
Navaid (VOR, NDB)
Fix

Horizontal Profiles

Position Reports

Time Latitude Longitude Heading Altitude Ground
Speed
24-Apr-20 09:46 33.933868 -118.390629 180 102ft 0kts
24-Apr-20 09:47 33.933868 -118.390629 180 102ft 0kts
24-Apr-20 09:48 33.933868 -118.390629 179 102ft 0kts
24-Apr-20 09:49 33.933868 -118.390629 179 102ft 0kts
24-Apr-20 09:50 33.933868 -118.390629 179 102ft 0kts
24-Apr-20 09:51 33.933868 -118.390629 179 102ft 0kts
24-Apr-20 09:52 33.934731 -118.390631 0 102ft 9kts
24-Apr-20 09:53 33.935606 -118.387865 84 99ft 24kts
24-Apr-20 09:54 33.936226 -118.382983 46 96ft 16kts
24-Apr-20 09:55 33.936507 -118.382835 358 96ft 0kts
24-Apr-20 09:56 33.936507 -118.382835 358 96ft 0kts
24-Apr-20 09:57 33.936507 -118.382835 358 96ft 0kts
24-Apr-20 09:58 33.936507 -118.382835 358 96ft 0kts
24-Apr-20 09:59 33.936665 -118.382842 356 96ft 0kts
24-Apr-20 10:00 33.937041 -118.382926 328 96ft 12kts
24-Apr-20 10:01 33.936007 -118.397317 263 370ft 81kts
24-Apr-20 10:02 33.933376 -118.426087 258 1151ft 86kts
24-Apr-20 10:03 33.923048 -118.462166 174 2263ft 91kts
24-Apr-20 10:04 33.882237 -118.459246 174 2486ft 121kts
24-Apr-20 10:05 33.831934 -118.455147 175 2487ft 119kts
24-Apr-20 10:06 33.769576 -118.451072 176 2500ft 119kts
24-Apr-20 10:07 33.695940 -118.445600 169 2509ft 120kts
24-Apr-20 10:08 33.678245 -118.421352 112 3348ft 86kts
24-Apr-20 10:09 33.668809 -118.393884 104 4006ft 88kts
24-Apr-20 10:10 33.666989 -118.365244 73 4628ft 89kts
24-Apr-20 10:11 33.672636 -118.336401 69 5264ft 88kts
24-Apr-20 10:13 33.681252 -118.304243 67 5496ft 112kts
24-Apr-20 10:14 33.692548 -118.269056 66 5501ft 113kts
24-Apr-20 10:15 33.702817 -118.233138 70 5488ft 114kts
24-Apr-20 10:16 33.698860 -118.197237 119 5507ft 115kts
24-Apr-20 10:17 33.680572 -118.165579 117 5532ft 115kts
24-Apr-20 10:18 33.660434 -118.134996 129 5528ft 117kts
24-Apr-20 10:19 33.638462 -118.105854 129 5520ft 117kts
24-Apr-20 10:20 33.614665 -118.078831 136 5512ft 118kts
24-Apr-20 10:21 33.589777 -118.052609 134 5472ft 119kts
24-Apr-20 10:22 33.565136 -118.025846 133 5468ft 118kts
24-Apr-20 10:23 33.537606 -118.003864 142 5506ft 118kts
24-Apr-20 10:24 33.510433 -117.981129 141 5527ft 120kts
24-Apr-20 10:25 33.482335 -117.958082 142 5484ft 123kts
24-Apr-20 10:26 33.455967 -117.931952 132 5461ft 122kts
24-Apr-20 10:27 33.431558 -117.903887 135 5490ft 121kts
24-Apr-20 10:28 33.405517 -117.878198 139 5504ft 121kts
24-Apr-20 10:29 33.378467 -117.853751 138 5522ft 121kts
24-Apr-20 10:29 33.357240 -117.831391 135 5525ft 122kts
24-Apr-20 10:31 33.327820 -117.799438 138 5513ft 123kts
24-Apr-20 10:32 33.301319 -117.773592 140 5513ft 122kts
24-Apr-20 10:32 33.279022 -117.752716 141 5511ft 122kts
24-Apr-20 10:33 33.251277 -117.728442 143 5473ft 123kts
24-Apr-20 10:35 33.218532 -117.700939 143 5461ft 122kts
24-Apr-20 10:35 33.195674 -117.680900 140 5473ft 121kts
24-Apr-20 10:36 33.168943 -117.656468 141 5498ft 121kts
24-Apr-20 10:37 33.143671 -117.629953 133 5522ft 121kts
24-Apr-20 10:38 33.125638 -117.596410 107 5499ft 122kts
24-Apr-20 10:39 33.117779 -117.557365 95 5468ft 121kts
24-Apr-20 10:40 33.111199 -117.518294 96 5442ft 118kts
24-Apr-20 10:41 33.101406 -117.482061 125 5457ft 117kts
24-Apr-20 10:42 33.080037 -117.452785 130 5470ft 117kts
24-Apr-20 10:43 33.056356 -117.426297 137 5481ft 117kts
24-Apr-20 10:44 33.030778 -117.401820 135 5478ft 117kts
24-Apr-20 10:45 33.005966 -117.376682 136 5504ft 116kts
24-Apr-20 10:46 32.980128 -117.352248 154 5320ft 127kts
24-Apr-20 10:47 32.948746 -117.331086 148 4785ft 132kts
24-Apr-20 10:48 32.917459 -117.308726 146 4260ft 131kts
24-Apr-20 10:49 32.885301 -117.288852 159 3755ft 132kts
24-Apr-20 10:50 32.851476 -117.275333 161 3444ft 121kts
24-Apr-20 10:51 32.821271 -117.260818 156 2925ft 116kts
24-Apr-20 10:52 32.792737 -117.242752 153 2416ft 116kts
24-Apr-20 10:53 32.762675 -117.228244 159 1904ft 117kts
24-Apr-20 10:54 32.734170 -117.216558 116 1288ft 87kts
24-Apr-20 10:55 32.742741 -117.193629 81 949ft 73kts
24-Apr-20 10:56 32.742059 -117.171204 87 968ft 87kts
24-Apr-20 10:57 32.737090 -117.149092 170 879ft 81kts
24-Apr-20 10:58 32.728093 -117.167085 282 555ft 66kts
24-Apr-20 10:59 32.732469 -117.185253 289 15ft 39kts
24-Apr-20 11:00 32.733995 -117.188046 19 17ft 0kts
24-Apr-20 11:01 32.734227 -117.187943 16 17ft 2kts
24-Apr-20 11:02 32.734789 -117.187810 198 17ft 0kts
24-Apr-20 11:03 32.734789 -117.187810 198 17ft 0kts
24-Apr-20 11:04 32.734789 -117.187810 198 17ft 0kts
24-Apr-20 11:05 32.734789 -117.187810 198 17ft 0kts
24-Apr-20 11:06 32.734789 -117.187810 198 17ft 0kts
24-Apr-20 11:07 32.734789 -117.187810 198 17ft 0kts
24-Apr-20 11:08 32.734789 -117.187810 198 17ft 0kts
24-Apr-20 11:09 32.734789 -117.187810 198 17ft 0kts
24-Apr-20 11:10 32.734789 -117.187810 198 17ft 0kts
24-Apr-20 11:11 32.734789 -117.187810 198 17ft 0kts
24-Apr-20 11:12 32.734789 -117.187810 198 17ft 0kts
24-Apr-20 11:13 32.734789 -117.187810 198 17ft 0kts

Navigation Log

Ident Type
Flight plan parsing failed, navigation log unavailable